createdAt,value
2019-01-19T00:00:36.675Z,15.30
2019-01-19T00:03:34.149Z,19.65
2019-01-19T00:06:24.057Z,18.12
2019-01-19T00:09:15.655Z,22.75
2019-01-19T00:12:18.743Z,20.25
2019-01-19T00:15:16.830Z,16.20
2019-01-19T00:18:22.410Z,18.35
2019-01-19T00:21:30.586Z,17.37
2019-01-19T00:24:50.411Z,17.23
2019-01-19T00:27:34.543Z,18.02
2019-01-19T00:30:21.558Z,18.00
2019-01-19T00:33:32.296Z,18.27
2019-01-19T00:36:46.539Z,18.62
2019-01-19T00:39:50.835Z,19.77
2019-01-19T00:42:31.509Z,18.40
2019-01-19T00:46:00.541Z,19.92
2019-01-19T00:49:01.191Z,20.85
2019-01-19T00:52:06.587Z,14.25
2019-01-19T00:54:48.422Z,15.53
2019-01-19T00:57:44.491Z,14.70
2019-01-19T01:00:20.479Z,16.70
2019-01-19T01:03:58.315Z,15.48
2019-01-19T01:06:51.769Z,17.85
2019-01-19T01:09:58.971Z,17.70
2019-01-19T01:12:49.585Z,17.87
2019-01-19T01:15:44.430Z,14.35
2019-01-19T01:19:01.310Z,18.55
2019-01-19T01:22:02.204Z,16.45
2019-01-19T01:24:49.991Z,14.73
2019-01-19T01:27:48.426Z,20.05
2019-01-19T01:31:11.400Z,17.12
2019-01-19T01:34:30.292Z,14.75
2019-01-19T01:37:20.050Z,17.35
2019-01-19T01:40:36.165Z,15.93
2019-01-19T01:43:24.268Z,14.58
2019-01-19T01:46:28.490Z,14.55
2019-01-19T01:49:15.804Z,15.43
2019-01-19T01:52:05.758Z,15.72
2019-01-19T01:54:53.794Z,20.45
2019-01-19T01:57:32.197Z,15.68
2019-01-19T02:00:29.420Z,14.25
2019-01-19T02:03:20.331Z,16.00
2019-01-19T02:06:03.791Z,16.82
2019-01-19T02:09:11.107Z,13.85
2019-01-19T02:12:06.493Z,14.23
2019-01-19T02:15:10.699Z,14.78
2019-01-19T02:18:16.345Z,14.75
2019-01-19T02:21:36.273Z,15.78
2019-01-19T02:24:36.115Z,14.60
2019-01-19T02:27:56.586Z,16.48
2019-01-19T02:31:06.514Z,15.03
2019-01-19T02:34:02.547Z,17.70
2019-01-19T02:36:46.298Z,17.77
2019-01-19T02:40:13.376Z,15.23
2019-01-19T02:42:58.407Z,15.15
2019-01-19T02:45:53.161Z,15.32
2019-01-19T02:48:45.175Z,14.45
2019-01-19T02:51:42.243Z,15.88
2019-01-19T02:54:40.280Z,16.45
2019-01-19T02:57:51.668Z,18.20
2019-01-19T03:01:06.530Z,17.12
2019-01-19T03:04:13.233Z,15.68
2019-01-19T03:07:07.384Z,14.68
2019-01-19T03:10:12.392Z,15.65
2019-01-19T03:13:29.045Z,15.08
2019-01-19T03:16:47.370Z,17.05
2019-01-19T03:19:59.721Z,15.55
2019-01-19T03:22:59.832Z,15.88
2019-01-19T03:25:42.644Z,15.98
2019-01-19T03:28:35.163Z,14.35
2019-01-19T03:31:46.385Z,15.15
2019-01-19T03:34:38.702Z,14.10
2019-01-19T03:37:34.544Z,16.20
2019-01-19T03:40:42.865Z,15.30
2019-01-19T03:43:56.786Z,13.20
2019-01-19T03:47:10.371Z,15.60
2019-01-19T03:50:18.121Z,15.48
2019-01-19T03:53:29.846Z,14.38
2019-01-19T03:56:25.233Z,16.50
2019-01-19T03:59:31.276Z,14.83
2019-01-19T04:02:56.875Z,14.87
2019-01-19T04:06:12.608Z,18.98
2019-01-19T04:09:19.314Z,17.45
2019-01-19T04:12:36.196Z,13.65
2019-01-19T04:15:32.684Z,16.50
2019-01-19T04:18:25.831Z,15.40
2019-01-19T04:21:32.583Z,13.83
2019-01-19T04:24:15.555Z,17.12
2019-01-19T04:26:47.245Z,15.53
2019-01-19T04:29:16.620Z,13.95
2019-01-19T04:31:46.246Z,15.05
2019-01-19T04:34:15.950Z,14.58
2019-01-19T04:36:45.515Z,17.52
2019-01-19T04:39:14.990Z,15.40
2019-01-19T04:41:44.409Z,16.90
2019-01-19T04:44:13.823Z,15.55
2019-01-19T04:46:43.186Z,14.33
2019-01-19T04:49:12.901Z,19.40
2019-01-19T04:51:42.254Z,16.95
2019-01-19T04:54:12.099Z,18.87
2019-01-19T04:56:41.567Z,15.55
2019-01-19T04:59:11.263Z,13.53
2019-01-19T05:01:40.899Z,18.15
2019-01-19T05:04:11.008Z,15.72
2019-01-19T05:06:40.473Z,13.53
2019-01-19T05:09:13.379Z,19.73
2019-01-19T05:11:42.786Z,15.32
2019-01-19T05:14:12.594Z,17.52
2019-01-19T05:16:42.031Z,16.48
2019-01-19T05:19:11.537Z,16.57
2019-01-19T05:21:41.040Z,16.10
2019-01-19T05:24:10.517Z,18.85
2019-01-19T05:26:40.015Z,15.00
2019-01-19T05:29:09.757Z,19.42
2019-01-19T05:31:39.183Z,15.68
2019-01-19T05:34:10.467Z,16.30
2019-01-19T05:36:41.907Z,15.78
2019-01-19T05:39:12.885Z,15.40
2019-01-19T05:41:42.707Z,18.32
2019-01-19T05:44:12.267Z,15.98
2019-01-19T05:46:41.693Z,14.25
2019-01-19T05:49:13.194Z,14.80
2019-01-19T05:51:43.744Z,16.85
2019-01-19T05:54:13.567Z,16.05
2019-01-19T05:56:45.705Z,18.05
2019-01-19T05:59:16.124Z,17.65
2019-01-19T06:01:46.400Z,18.30
2019-01-19T06:04:16.530Z,17.15
2019-01-19T06:06:46.950Z,17.27
2019-01-19T06:09:17.230Z,15.78
2019-01-19T06:11:46.787Z,16.77
2019-01-19T06:14:16.901Z,15.53
2019-01-19T06:16:46.786Z,13.62
2019-01-19T06:19:17.520Z,15.38
2019-01-19T06:21:58.826Z,15.43
2019-01-19T06:24:28.198Z,15.65
2019-01-19T06:26:58.315Z,17.75
2019-01-19T06:29:27.850Z,16.52
2019-01-19T06:31:57.414Z,17.00
2019-01-19T06:34:26.806Z,15.78
2019-01-19T06:36:56.597Z,14.70
2019-01-19T06:39:26.149Z,13.32
2019-01-19T06:41:55.653Z,16.90
2019-01-19T06:44:25.179Z,15.65
2019-01-19T06:46:54.724Z,16.93
2019-01-19T06:49:25.667Z,18.73
2019-01-19T06:51:55.061Z,16.42
2019-01-19T06:54:25.782Z,16.05
2019-01-19T06:56:55.248Z,18.55
2019-01-19T06:59:24.637Z,16.30
2019-01-19T07:01:54.181Z,16.60
2019-01-19T07:04:23.905Z,19.62
2019-01-19T07:06:54.093Z,17.23
2019-01-19T07:09:24.103Z,18.30
2019-01-19T07:11:53.613Z,15.08
2019-01-19T07:14:23.485Z,15.43
2019-01-19T07:16:53.104Z,15.93
2019-01-19T07:19:22.885Z,19.62
2019-01-19T07:21:52.199Z,16.77
2019-01-19T07:24:21.896Z,21.23
2019-01-19T07:26:51.501Z,15.65
2019-01-19T07:29:20.953Z,17.75
2019-01-19T07:31:50.390Z,17.17
2019-01-19T07:34:20.032Z,15.50
2019-01-19T07:36:49.540Z,19.12
2019-01-19T07:39:19.096Z,15.78
2019-01-19T07:41:48.611Z,15.90
2019-01-19T07:44:18.715Z,15.10
2019-01-19T07:46:56.036Z,17.30
2019-01-19T07:49:23.210Z,17.12
2019-01-19T07:51:52.768Z,16.75
2019-01-19T07:54:22.714Z,17.85
2019-01-19T07:56:52.491Z,17.87
2019-01-19T07:59:22.541Z,18.40
2019-01-19T08:01:53.164Z,17.65
2019-01-19T08:04:24.498Z,19.25
2019-01-19T08:06:54.240Z,15.85
2019-01-19T08:09:24.201Z,18.48
2019-01-19T08:11:53.833Z,15.35
2019-01-19T08:14:23.491Z,16.15
2019-01-19T08:16:52.889Z,19.75
2019-01-19T08:19:22.500Z,16.30
2019-01-19T08:21:52.255Z,19.73
2019-01-19T08:24:21.604Z,26.27
2019-01-19T08:26:51.324Z,20.75
2019-01-19T08:29:20.723Z,20.60
2019-01-19T08:31:50.356Z,27.90
2019-01-19T08:34:20.040Z,26.97
2019-01-19T08:36:49.443Z,29.23
2019-01-19T08:39:18.954Z,42.80
2019-01-19T08:41:48.526Z,37.83
2019-01-19T08:44:18.002Z,39.45
2019-01-19T08:46:48.679Z,34.10
2019-01-19T08:49:18.112Z,37.60
2019-01-19T08:51:47.947Z,45.98
2019-01-19T08:54:17.612Z,50.45
2019-01-19T08:56:47.935Z,63.87
2019-01-19T08:59:18.553Z,113.40
2019-01-19T09:01:48.497Z,77.10
2019-01-19T09:04:18.752Z,80.85
2019-01-19T09:06:48.695Z,65.85
2019-01-19T09:09:18.646Z,44.08
2019-01-19T09:11:48.444Z,34.08
2019-01-19T09:14:17.864Z,27.15
2019-01-19T09:16:47.274Z,32.10
2019-01-19T09:19:16.761Z,27.58
2019-01-19T09:21:46.325Z,29.87
2019-01-19T09:24:24.684Z,30.68
2019-01-19T09:26:54.431Z,31.02
2019-01-19T09:29:23.978Z,35.78
2019-01-19T09:31:54.202Z,36.88
2019-01-19T09:34:23.839Z,40.15
2019-01-19T09:36:53.990Z,37.67
2019-01-19T09:39:24.457Z,45.12
2019-01-19T09:41:54.178Z,40.70
2019-01-19T09:44:24.575Z,42.20
2019-01-19T09:46:54.199Z,38.92
2019-01-19T09:49:23.734Z,33.98
2019-01-19T09:51:53.198Z,37.75
2019-01-19T09:54:22.772Z,41.68
2019-01-19T09:56:52.341Z,50.73
2019-01-19T09:59:21.946Z,53.70
2019-01-19T10:01:51.485Z,55.23
2019-01-19T10:04:21.036Z,63.20
2019-01-19T10:06:50.552Z,67.70
2019-01-19T10:09:20.158Z,66.37
2019-01-19T10:11:49.627Z,60.83
2019-01-19T10:14:19.317Z,48.38
2019-01-19T10:16:48.794Z,43.98
2019-01-19T10:19:18.333Z,70.25
2019-01-19T10:21:48.033Z,35.60
2019-01-19T10:24:17.456Z,29.02
2019-01-19T10:26:47.276Z,33.83
2019-01-19T10:29:17.399Z,34.05
2019-01-19T10:31:47.026Z,37.50
2019-01-19T10:34:16.637Z,32.95
2019-01-19T10:36:46.216Z,28.15
2019-01-19T10:39:15.714Z,32.40
2019-01-19T10:42:07.704Z,26.97
2019-01-19T10:44:37.470Z,22.22
2019-01-19T10:47:07.457Z,21.37
2019-01-19T10:49:37.015Z,25.37
2019-01-19T10:52:06.821Z,24.25
2019-01-19T10:54:36.514Z,23.95
2019-01-19T10:57:05.988Z,29.10
2019-01-19T10:59:35.618Z,23.22
2019-01-19T11:02:05.326Z,41.85
2019-01-19T11:04:34.828Z,32.60
2019-01-19T11:07:04.582Z,24.05
2019-01-19T11:09:34.287Z,24.55
2019-01-19T11:12:04.034Z,29.75
2019-01-19T11:14:33.741Z,41.23
2019-01-19T11:17:03.332Z,29.37
2019-01-19T11:19:32.914Z,25.88
2019-01-19T11:22:02.520Z,30.10
2019-01-19T11:24:32.019Z,25.02
2019-01-19T11:27:01.647Z,21.95
2019-01-19T11:29:31.144Z,27.55
2019-01-19T11:32:00.926Z,23.02
2019-01-19T11:34:30.326Z,24.30
2019-01-19T11:36:59.905Z,23.52
2019-01-19T11:39:29.407Z,19.27
2019-01-19T11:41:59.128Z,22.35
2019-01-19T11:44:28.568Z,22.82
2019-01-19T11:46:58.328Z,19.60
2019-01-19T11:49:27.987Z,22.90
2019-01-19T11:51:57.416Z,26.02
2019-01-19T11:54:27.001Z,26.68
2019-01-19T11:56:56.747Z,25.15
2019-01-19T11:59:26.807Z,42.80
2019-01-19T12:01:56.343Z,33.28
2019-01-19T12:04:25.811Z,31.85
2019-01-19T12:06:55.533Z,19.92
2019-01-19T12:09:25.372Z,22.85
2019-01-19T12:11:54.877Z,21.55
2019-01-19T12:14:24.407Z,20.30
2019-01-19T12:16:57.044Z,15.55
2019-01-19T12:19:27.033Z,24.00
2019-01-19T12:21:57.095Z,22.85
2019-01-19T12:24:26.595Z,18.55
2019-01-19T12:26:56.330Z,22.55
2019-01-19T12:29:26.047Z,16.95
2019-01-19T12:31:55.518Z,20.20
2019-01-19T12:34:25.105Z,14.70
2019-01-19T12:36:54.778Z,13.88
2019-01-19T12:39:24.217Z,14.00
2019-01-19T12:41:53.921Z,15.98
2019-01-19T12:44:24.113Z,19.73
2019-01-19T12:46:54.013Z,19.52
2019-01-19T12:49:23.435Z,14.15
2019-01-19T12:51:53.056Z,22.48
2019-01-19T12:54:22.650Z,16.75
2019-01-19T12:56:52.880Z,21.82
2019-01-19T12:59:22.533Z,15.75
2019-01-19T13:01:52.371Z,17.70
2019-01-19T13:04:21.937Z,17.05
2019-01-19T13:07:04.888Z,21.90
2019-01-19T13:09:44.088Z,29.85
2019-01-19T13:12:41.143Z,26.00
2019-01-19T13:15:42.665Z,29.37
2019-01-19T13:19:02.712Z,21.62
2019-01-19T13:22:10.124Z,18.27
2019-01-19T13:24:55.204Z,21.95
2019-01-19T13:27:53.344Z,19.50
2019-01-19T13:31:11.202Z,19.40
2019-01-19T13:34:14.624Z,22.25
2019-01-19T13:37:24.800Z,27.93
2019-01-19T13:40:09.878Z,26.55
2019-01-19T13:43:17.630Z,26.68
2019-01-19T13:45:56.953Z,23.32
2019-01-19T13:48:51.943Z,21.35
2019-01-19T13:51:30.326Z,21.40
2019-01-19T13:54:36.885Z,25.55
2019-01-19T13:57:35.058Z,26.93
2019-01-19T14:00:44.838Z,46.08
2019-01-19T14:03:59.946Z,17.27
2019-01-19T14:07:06.219Z,22.75
2019-01-19T14:10:01.811Z,17.35
2019-01-19T14:13:36.468Z,21.48
2019-01-19T14:16:30.594Z,18.17
2019-01-19T14:19:47.166Z,17.30
2019-01-19T14:22:58.526Z,17.00
2019-01-19T14:25:51.925Z,18.17
2019-01-19T14:29:02.523Z,20.60
2019-01-19T14:32:08.474Z,19.15
2019-01-19T14:35:01.398Z,17.20
2019-01-19T14:38:00.761Z,16.15
2019-01-19T14:41:11.721Z,21.82
2019-01-19T14:44:10.028Z,20.97
2019-01-19T14:47:22.555Z,21.02
2019-01-19T14:50:43.277Z,21.85
2019-01-19T14:54:24.456Z,23.12
2019-01-19T14:57:29.724Z,22.55
2019-01-19T15:00:27.680Z,20.65
2019-01-19T15:03:24.777Z,20.23
2019-01-19T15:06:50.594Z,22.73
2019-01-19T15:09:42.525Z,26.95
2019-01-19T15:12:51.625Z,26.93
2019-01-19T15:15:47.655Z,21.15
2019-01-19T15:18:54.025Z,26.17
2019-01-19T15:22:09.847Z,25.80
2019-01-19T15:25:18.434Z,26.93
2019-01-19T15:28:13.195Z,21.42
2019-01-19T15:30:56.710Z,23.92
2019-01-19T15:34:02.433Z,24.60
2019-01-19T15:37:02.494Z,21.68
2019-01-19T15:39:41.167Z,15.63
2019-01-19T15:43:03.863Z,16.57
2019-01-19T15:46:05.483Z,19.20
2019-01-19T15:49:25.046Z,21.17
2019-01-19T15:52:27.142Z,22.20
2019-01-19T15:55:51.746Z,25.27
2019-01-19T15:58:57.546Z,25.57
2019-01-19T16:02:06.690Z,20.57
2019-01-19T16:05:14.903Z,21.33
2019-01-19T16:08:21.477Z,24.65
2019-01-19T16:11:36.478Z,19.10
2019-01-19T16:14:56.022Z,20.30
2019-01-19T16:17:48.929Z,18.87
2019-01-19T16:21:00.339Z,20.68
2019-01-19T16:24:00.636Z,21.10
2019-01-19T16:27:06.225Z,20.12
2019-01-19T16:30:10.289Z,20.05
2019-01-19T16:33:12.156Z,21.45
2019-01-19T16:36:05.059Z,19.17
2019-01-19T16:39:30.784Z,19.98
2019-01-19T16:42:26.326Z,19.20
2019-01-19T16:45:25.114Z,18.85
2019-01-19T16:48:20.859Z,17.77
2019-01-19T16:51:33.208Z,18.23
2019-01-19T16:54:46.575Z,16.10
2019-01-19T16:57:34.820Z,18.00
2019-01-19T17:00:35.236Z,21.35
2019-01-19T17:03:44.585Z,20.48
2019-01-19T17:06:49.737Z,16.10
2019-01-19T17:10:04.017Z,18.70
2019-01-19T17:12:50.159Z,20.92
2019-01-19T17:15:50.799Z,17.87
2019-01-19T17:18:47.180Z,18.35
2019-01-19T17:22:04.016Z,19.15
2019-01-19T17:25:17.420Z,18.35
2019-01-19T17:28:27.599Z,18.75
2019-01-19T17:31:23.378Z,17.48
2019-01-19T17:34:58.598Z,19.27
2019-01-19T17:37:48.713Z,18.32
2019-01-19T17:40:54.779Z,21.37
2019-01-19T17:44:11.638Z,21.35
2019-01-19T17:47:00.892Z,19.20
2019-01-19T17:49:56.225Z,20.37
2019-01-19T17:52:49.645Z,19.90
2019-01-19T17:56:03.408Z,20.10
2019-01-19T17:59:24.934Z,16.50
2019-01-19T18:02:31.484Z,18.57
2019-01-19T18:05:13.454Z,19.45
2019-01-19T18:08:31.028Z,24.00
2019-01-19T18:11:32.886Z,20.77
2019-01-19T18:14:57.212Z,23.38
2019-01-19T18:18:07.705Z,25.23
2019-01-19T18:21:16.729Z,26.30
2019-01-19T18:24:35.359Z,24.77
2019-01-19T18:27:36.771Z,25.68
2019-01-19T18:30:40.213Z,28.15
2019-01-19T18:33:31.264Z,27.35
2019-01-19T18:36:35.789Z,28.87
2019-01-19T18:39:36.499Z,28.32
2019-01-19T18:42:36.876Z,26.20
2019-01-19T18:45:40.576Z,26.37
2019-01-19T18:48:36.215Z,23.75
2019-01-19T18:51:24.780Z,23.05
2019-01-19T18:54:31.192Z,23.02
2019-01-19T18:57:25.684Z,22.55
2019-01-19T19:00:43.479Z,23.27
2019-01-19T19:03:41.599Z,23.95
2019-01-19T19:06:43.105Z,25.30
2019-01-19T19:10:02.040Z,27.48
2019-01-19T19:12:56.905Z,30.77
2019-01-19T19:16:16.996Z,36.15
2019-01-19T19:19:29.521Z,33.23
2019-01-19T19:22:26.581Z,28.70
2019-01-19T19:25:30.042Z,26.55
2019-01-19T19:28:45.969Z,27.45
2019-01-19T19:31:42.506Z,28.90
2019-01-19T19:34:48.120Z,30.35
2019-01-19T19:37:58.826Z,30.65
2019-01-19T19:41:03.079Z,31.05
2019-01-19T19:43:53.726Z,30.90
2019-01-19T19:46:55.303Z,27.07
2019-01-19T19:50:21.243Z,31.70
2019-01-19T19:52:50.802Z,31.00
2019-01-19T19:55:18.839Z,28.85
2019-01-19T19:57:48.426Z,30.32
2019-01-19T20:00:18.661Z,26.12
2019-01-19T20:02:48.168Z,29.30
2019-01-19T20:05:18.033Z,26.42
2019-01-19T20:07:47.698Z,27.80
2019-01-19T20:10:17.534Z,26.05
2019-01-19T20:12:47.394Z,30.23
2019-01-19T20:15:17.326Z,29.48
2019-01-19T20:17:46.800Z,32.83
2019-01-19T20:20:16.800Z,27.10
2019-01-19T20:22:46.660Z,32.10
2019-01-19T20:25:16.308Z,29.45
2019-01-19T20:27:46.385Z,30.02
2019-01-19T20:30:17.017Z,26.55
2019-01-19T20:32:46.658Z,29.85
2019-01-19T20:35:16.348Z,29.67
2019-01-19T20:37:45.819Z,33.25
2019-01-19T20:40:15.512Z,26.57
2019-01-19T20:42:45.110Z,30.92
2019-01-19T20:45:15.378Z,37.67
2019-01-19T20:47:45.131Z,31.62
2019-01-19T20:50:14.989Z,30.37
2019-01-19T20:52:44.642Z,30.02
2019-01-19T20:55:15.049Z,33.43
2019-01-19T20:57:47.027Z,32.67
2019-01-19T21:00:17.967Z,31.65
2019-01-19T21:02:47.556Z,36.17
2019-01-19T21:05:17.784Z,30.45
2019-01-19T21:07:47.391Z,29.82
2019-01-19T21:10:18.124Z,32.33
2019-01-19T21:12:47.651Z,28.27
2019-01-19T21:15:17.609Z,33.80
2019-01-19T21:17:47.278Z,31.40
2019-01-19T21:20:17.228Z,30.55
2019-01-19T21:22:46.696Z,36.03
2019-01-19T21:25:16.410Z,35.25
2019-01-19T21:27:45.903Z,34.00
2019-01-19T21:30:16.386Z,32.33
2019-01-19T21:32:46.292Z,30.60
2019-01-19T21:35:16.304Z,33.80
2019-01-19T21:37:45.760Z,34.23
2019-01-19T21:40:16.123Z,31.75
2019-01-19T21:42:45.695Z,31.05
2019-01-19T21:45:17.998Z,32.42
2019-01-19T21:47:47.806Z,35.95
2019-01-19T21:50:17.507Z,36.40
2019-01-19T21:52:47.041Z,41.02
2019-01-19T21:55:16.759Z,34.10
2019-01-19T21:57:46.331Z,33.30
2019-01-19T22:00:17.460Z,30.50
2019-01-19T22:02:47.129Z,38.42
2019-01-19T22:07:42.477Z,36.53
2019-01-19T22:10:14.715Z,35.73
2019-01-19T22:12:44.268Z,31.42
2019-01-19T22:15:15.919Z,39.10
2019-01-19T22:17:45.494Z,31.52
2019-01-19T22:20:16.148Z,33.33
2019-01-19T22:22:45.774Z,34.53
2019-01-19T22:25:15.134Z,31.45
2019-01-19T22:27:47.556Z,31.42
2019-01-19T22:30:19.562Z,35.17
2019-01-19T22:32:51.027Z,28.38
2019-01-19T22:35:21.788Z,34.55
2019-01-19T22:37:51.208Z,30.85
2019-01-19T22:40:21.015Z,31.77
2019-01-19T22:42:50.612Z,38.25
2019-01-19T22:45:20.187Z,36.70
2019-01-19T22:47:49.739Z,45.52
2019-01-19T22:50:19.303Z,52.20
2019-01-19T22:52:48.732Z,55.12
2019-01-19T22:55:18.340Z,74.25
2019-01-19T22:57:47.923Z,70.17
2019-01-19T23:00:56.199Z,82.15
2019-01-19T23:03:25.982Z,78.57
2019-01-19T23:05:55.648Z,84.77
2019-01-19T23:08:25.151Z,65.57
2019-01-19T23:11:01.062Z,68.65
2019-01-19T23:13:26.086Z,59.60
2019-01-19T23:15:55.702Z,64.15
2019-01-19T23:18:25.214Z,83.95
2019-01-19T23:20:54.811Z,67.40
2019-01-19T23:23:24.192Z,70.83
2019-01-19T23:25:53.894Z,65.57
2019-01-19T23:28:23.343Z,69.35
2019-01-19T23:30:53.051Z,59.05
2019-01-19T23:33:22.464Z,59.85
2019-01-19T23:35:52.022Z,57.55
2019-01-19T23:38:21.426Z,59.38
2019-01-19T23:40:50.954Z,58.40
2019-01-19T23:43:20.549Z,57.48
2019-01-19T23:45:50.129Z,57.65
2019-01-19T23:48:19.667Z,64.00
2019-01-19T23:50:49.378Z,64.17
2019-01-19T23:53:18.745Z,65.28
2019-01-19T23:55:48.262Z,71.72
2019-01-19T23:58:17.869Z,65.80
